createdAt,value
2022-08-17T00:06:57.973Z,25.24
2022-08-17T00:14:00.630Z,25.21
2022-08-17T00:21:02.928Z,25.23
2022-08-17T00:28:06.056Z,25.19
2022-08-17T00:35:08.313Z,25.06
2022-08-17T00:42:14.046Z,25.00
2022-08-17T00:49:15.530Z,25.02
2022-08-17T00:56:18.826Z,24.98
2022-08-17T01:03:21.460Z,24.88
2022-08-17T01:10:58.348Z,24.86
2022-08-17T01:17:45.843Z,24.85
2022-08-17T01:24:48.734Z,24.80
2022-08-17T01:31:51.124Z,24.70
2022-08-17T01:38:52.589Z,24.59
2022-08-17T01:46:03.242Z,24.53
2022-08-17T01:53:06.287Z,24.51
2022-08-17T02:00:10.260Z,24.47
2022-08-17T02:07:12.400Z,24.42
2022-08-17T02:14:13.887Z,24.42
2022-08-17T02:21:15.365Z,24.34
2022-08-17T02:28:17.191Z,24.17
2022-08-17T02:35:20.084Z,24.17
2022-08-17T02:42:31.467Z,24.09
2022-08-17T02:49:33.077Z,24.00
2022-08-17T02:56:34.577Z,23.88
2022-08-17T03:03:36.599Z,23.76
2022-08-17T03:10:38.094Z,23.66
2022-08-17T03:17:39.576Z,23.63
2022-08-17T03:24:41.032Z,23.58
2022-08-17T03:31:42.761Z,23.52
2022-08-17T03:38:44.231Z,23.44
2022-08-17T03:46:05.829Z,23.39
2022-08-17T03:53:54.379Z,23.34
2022-08-17T04:00:55.834Z,23.30
2022-08-17T04:07:57.262Z,23.32
2022-08-17T04:14:58.990Z,23.33
2022-08-17T04:22:00.525Z,23.34
2022-08-17T04:29:01.996Z,23.35
2022-08-17T04:36:04.328Z,23.46
2022-08-17T04:43:09.990Z,23.54
2022-08-17T04:50:11.433Z,23.66
2022-08-17T04:57:12.923Z,23.78
2022-08-17T05:04:32.956Z,23.83
2022-08-17T05:11:36.761Z,23.89
2022-08-17T05:18:38.869Z,24.01
2022-08-17T05:25:41.177Z,24.11
2022-08-17T05:32:52.498Z,24.21
2022-08-17T05:39:54.166Z,24.32
2022-08-17T05:46:55.696Z,24.50
2022-08-17T05:54:15.693Z,24.69
2022-08-17T06:01:17.161Z,24.90
2022-08-17T06:08:18.693Z,25.01
2022-08-17T06:15:27.789Z,25.17
2022-08-17T06:22:31.204Z,25.39
2022-08-17T06:29:42.086Z,25.50
2022-08-17T06:36:48.126Z,25.69
2022-08-17T06:44:08.353Z,25.85
2022-08-17T06:51:09.781Z,26.03
2022-08-17T06:58:15.676Z,26.25
2022-08-17T07:05:18.441Z,26.53
2022-08-17T07:12:22.278Z,26.78
2022-08-17T07:19:25.283Z,26.96
2022-08-17T07:26:27.498Z,27.31
2022-08-17T07:33:29.538Z,27.67
2022-08-17T07:40:33.450Z,28.30
2022-08-17T07:47:53.455Z,28.93
2022-08-17T07:54:54.920Z,29.36
2022-08-17T08:01:57.495Z,29.78
2022-08-17T08:09:00.842Z,30.47
2022-08-17T08:16:14.293Z,31.18
2022-08-17T08:23:19.175Z,31.16
2022-08-17T08:30:21.480Z,31.68
2022-08-17T08:37:37.860Z,32.08
2022-08-17T08:45:01.176Z,32.62
2022-08-17T08:52:08.637Z,32.90
2022-08-17T08:59:28.634Z,33.34
2022-08-17T09:06:39.492Z,33.91
2022-08-17T09:14:00.305Z,34.32
2022-08-17T09:21:11.390Z,34.93
2022-08-17T09:28:19.036Z,35.76
2022-08-17T09:35:25.153Z,36.08
2022-08-17T09:42:40.407Z,36.32
2022-08-17T09:49:44.891Z,36.91
2022-08-17T09:57:18.116Z,36.97
2022-08-17T10:04:28.892Z,37.19
2022-08-17T10:11:51.757Z,37.75
2022-08-17T10:19:02.065Z,37.66
2022-08-17T10:26:23.045Z,37.22
2022-08-17T10:33:27.646Z,37.70
2022-08-17T10:40:43.665Z,37.80
2022-08-17T10:48:04.673Z,38.04
2022-08-17T10:55:08.650Z,37.91
2022-08-17T11:02:10.113Z,37.55
2022-08-17T11:09:27.531Z,38.12
2022-08-17T11:16:33.292Z,38.39
2022-08-17T11:23:46.843Z,39.20
2022-08-17T11:30:53.013Z,38.38
2022-08-17T11:37:54.929Z,38.00
2022-08-17T11:44:57.409Z,37.80
2022-08-17T11:52:00.279Z,37.07
2022-08-17T11:59:02.908Z,37.07
2022-08-17T12:06:05.866Z,37.12
2022-08-17T12:13:10.436Z,37.33
2022-08-17T12:20:14.717Z,37.65
2022-08-17T12:27:20.458Z,37.70
2022-08-17T12:34:42.060Z,36.48
2022-08-17T12:41:44.394Z,35.25
2022-08-17T12:48:59.293Z,35.95
2022-08-17T12:56:01.495Z,37.20
2022-08-17T13:03:05.826Z,38.82
2022-08-17T13:10:07.372Z,39.59
2022-08-17T13:17:13.386Z,39.97
2022-08-17T13:24:18.028Z,39.26
2022-08-17T13:31:24.026Z,39.34
2022-08-17T13:38:47.134Z,38.97
2022-08-17T13:45:50.831Z,37.59
2022-08-17T13:52:52.551Z,37.44
2022-08-17T13:59:55.966Z,37.16
2022-08-17T14:06:57.791Z,36.98
2022-08-17T14:13:59.248Z,36.93
2022-08-17T14:21:00.694Z,36.78
2022-08-17T14:28:04.411Z,36.51
2022-08-17T14:35:06.075Z,36.42
2022-08-17T14:42:07.562Z,36.51
2022-08-17T14:49:10.149Z,36.69
2022-08-17T14:56:13.330Z,36.48
2022-08-17T15:03:15.390Z,35.80
2022-08-17T15:10:17.608Z,35.43
2022-08-17T15:17:19.075Z,35.03
2022-08-17T15:24:20.540Z,34.51
2022-08-17T15:31:31.709Z,34.28
2022-08-17T15:38:36.594Z,34.91
2022-08-17T15:45:38.075Z,35.01
2022-08-17T15:52:40.570Z,35.65
2022-08-17T15:59:43.327Z,35.90
2022-08-17T16:06:44.826Z,35.99
2022-08-17T16:13:47.364Z,36.19
2022-08-17T16:20:56.644Z,36.24
2022-08-17T16:27:58.090Z,35.92
2022-08-17T16:35:03.535Z,35.61
2022-08-17T16:42:05.551Z,35.10
2022-08-17T16:49:08.251Z,34.97
2022-08-17T16:56:12.921Z,34.93
2022-08-17T17:03:19.424Z,34.74
2022-08-17T17:10:40.800Z,34.58
2022-08-17T17:17:42.278Z,34.31
2022-08-17T17:24:52.939Z,34.04
2022-08-17T17:32:14.940Z,33.90
2022-08-17T17:39:20.121Z,33.77
2022-08-17T17:46:33.284Z,33.66
2022-08-17T17:53:43.366Z,33.41
2022-08-17T18:00:48.288Z,33.20
2022-08-17T18:07:52.433Z,32.99
2022-08-17T18:15:00.546Z,32.87
2022-08-17T18:22:14.603Z,32.69
2022-08-17T18:29:22.000Z,32.50
2022-08-17T18:36:27.975Z,32.30
2022-08-17T18:43:43.767Z,32.29
2022-08-17T18:50:56.277Z,32.22
2022-08-17T18:57:59.461Z,32.05
2022-08-17T19:05:10.055Z,31.97
2022-08-17T19:12:13.964Z,31.85
2022-08-17T19:19:23.220Z,31.80
2022-08-17T19:26:54.308Z,31.72
2022-08-17T19:33:48.136Z,31.50
2022-08-17T19:40:59.051Z,31.45
2022-08-17T19:48:04.279Z,31.43
2022-08-17T19:55:09.079Z,31.35
2022-08-17T20:02:22.644Z,31.24
2022-08-17T20:09:33.633Z,31.14
2022-08-17T20:16:35.436Z,31.04
2022-08-17T20:23:42.966Z,30.96
2022-08-17T20:30:44.435Z,30.88
2022-08-17T20:37:52.300Z,30.76
2022-08-17T20:45:13.799Z,30.67
2022-08-17T20:52:16.650Z,30.55
2022-08-17T20:59:22.786Z,30.38
2022-08-17T21:06:24.418Z,30.18
2022-08-17T21:13:44.941Z,30.10
2022-08-17T21:20:49.564Z,30.04
2022-08-17T21:27:51.221Z,29.94
2022-08-17T21:35:11.213Z,29.89
2022-08-17T21:42:12.703Z,29.83
2022-08-17T21:49:16.622Z,29.65
2022-08-17T21:56:22.616Z,29.49
2022-08-17T22:03:25.766Z,29.44
2022-08-17T22:10:37.857Z,29.40
2022-08-17T22:17:45.999Z,29.30
2022-08-17T22:24:55.393Z,29.27
2022-08-17T22:31:58.829Z,29.20
2022-08-17T22:39:09.431Z,29.15
2022-08-17T22:46:10.986Z,29.07
2022-08-17T22:53:35.736Z,29.02
2022-08-17T23:00:41.400Z,28.96
2022-08-17T23:07:43.502Z,28.83
2022-08-17T23:14:46.894Z,28.77
2022-08-17T23:21:52.437Z,28.70
2022-08-17T23:28:53.908Z,28.63
2022-08-17T23:36:00.305Z,28.59
2022-08-17T23:43:05.947Z,28.59
2022-08-17T23:50:19.456Z,28.54
2022-08-17T23:57:33.818Z,28.51
